Time;durP1;ratioP1;P1;durP2;ratioP2;P2;SDS_P1;SDS_P2;PMS_P1;PMS_P2;Temp;Humidity;BMP_temperature;BMP_pressure;BME280_temperature;BME280_humidity;BME280_pressure;Samples;Min_cycle;Max_cycle;Signal;HPM_P1;HPM_P2
2021/12/13 17:04:16;;;;;;;79.10;25.17;;;;;;;2.47;80.23;101289.25;5006012;28;106112;-66
2021/12/13 17:06:52;;;;;;;68.65;23.90;;;;;;;2.51;80.70;101285.50;5003588;28;106481;-67
2021/12/13 17:09:19;;;;;;;83.65;26.27;;;;;;;2.57;80.37;101285.16;5002639;28;106184;-67
2021/12/13 17:11:44;;;;;;;77.60;28.35;;;;;;;2.64;80.79;101286.47;5002666;28;106110;-67
2021/12/13 17:14:20;;;;;;;93.45;30.55;;;;;;;2.70;80.60;101287.88;5002321;28;106393;-68
2021/12/13 17:16:54;;;;;;;80.82;27.45;;;;;;;2.79;80.65;101294.38;5002971;28;105862;-68
2021/12/13 17:19:22;;;;;;;94.65;29.55;;;;;;;2.85;80.77;101291.38;5002544;28;106352;-68
2021/12/13 17:22:04;;;;;;;112.68;28.73;;;;;;;2.89;80.45;101298.16;5001166;28;106199;-68
2021/12/13 17:24:38;;;;;;;109.35;27.83;;;;;;;2.91;80.37;101298.88;5001942;28;106430;-68
2021/12/13 17:27:11;;;;;;;70.25;27.77;;;;;;;2.94;80.82;101292.59;5000870;28;106383;-68
2021/12/13 17:29:58;;;;;;;149.98;35.50;;;;;;;2.94;80.48;101293.47;5000725;28;106251;-67
2021/12/13 17:32:31;;;;;;;125.57;33.42;;;;;;;2.92;80.53;101297.13;5001840;28;106577;-68
2021/12/13 17:35:04;;;;;;;133.07;36.80;;;;;;;2.92;80.80;101305.84;5002404;28;106232;-69
2021/12/13 17:37:29;;;;;;;121.93;37.50;;;;;;;2.92;80.82;101295.31;5002732;28;106117;-69
2021/12/13 17:39:56;;;;;;;126.18;43.65;;;;;;;2.94;80.79;101296.09;5002646;28;106260;-67
2021/12/13 17:42:23;;;;;;;244.38;45.97;;;;;;;2.96;80.80;101291.56;5002191;28;106528;-68
2021/12/13 17:45:07;;;;;;;131.88;39.55;;;;;;;2.94;81.11;101298.72;5001910;28;105977;-68
2021/12/13 17:47:36;;;;;;;115.90;39.47;;;;;;;2.95;81.01;101303.03;5002996;28;106039;-68
2021/12/13 17:50:23;;;;;;;123.00;40.35;;;;;;;2.97;81.16;101293.25;5002040;28;106898;-68
2021/12/13 17:52:59;;;;;;;132.82;42.63;;;;;;;2.99;80.66;101290.53;5002039;28;106177;-69
2021/12/13 17:55:28;;;;;;;132.25;39.42;;;;;;;2.99;81.14;101301.94;5001284;28;106032;-70
2021/12/13 17:57:56;;;;;;;113.30;39.00;;;;;;;3.01;81.05;101294.75;5001926;28;106369;-72
2021/12/13 18:00:30;;;;;;;112.43;39.03;;;;;;;3.03;81.10;101298.16;5002087;28;106739;-71
2021/12/13 18:03:16;;;;;;;104.70;36.97;;;;;;;3.07;81.03;101297.97;5001594;28;106643;-70
2021/12/13 18:05:41;;;;;;;110.18;38.78;;;;;;;3.08;80.74;101297.03;5000912;28;106237;-70
2021/12/13 18:08:09;;;;;;;117.32;36.78;;;;;;;3.09;80.87;101296.06;5002396;28;106334;-67
2021/12/13 18:10:36;;;;;;;160.68;43.30;;;;;;;3.10;81.16;101297.78;5005312;28;106213;-68
2021/12/13 18:13:05;;;;;;;263.23;51.17;;;;;;;3.09;81.14;101296.06;5011431;28;106142;-67
2021/12/13 18:15:38;;;;;;;148.77;45.30;;;;;;;3.08;80.95;101289.13;4994469;28;106046;-68
2021/12/13 18:18:28;;;;;;;161.07;51.25;;;;;;;3.07;81.22;101300.59;4989312;28;106119;-68
2021/12/13 18:20:58;;;;;;;158.88;56.58;;;;;;;3.12;81.78;101302.00;4968926;28;106449;-70
2021/12/13 18:23:37;;;;;;;192.43;60.97;;;;;;;3.15;81.62;101298.34;4968703;28;105988;-74
2021/12/13 18:26:23;;;;;;;176.73;61.00;;;;;;;3.16;81.54;101297.41;4977250;28;106381;-69
2021/12/13 18:29:02;;;;;;;180.70;63.17;;;;;;;3.16;81.29;101297.41;4996334;28;106556;-67
2021/12/13 18:31:36;;;;;;;224.30;83.00;;;;;;;3.17;81.30;101288.53;4986778;28;106911;-70
2021/12/13 18:34:09;;;;;;;237.30;68.13;;;;;;;3.17;81.38;101283.28;4987966;28;106437;-69
2021/12/13 18:36:48;;;;;;;188.50;68.25;;;;;;;3.16;81.41;101292.13;4987828;28;106060;-67
2021/12/13 18:39:23;;;;;;;132.50;43.60;;;;;;;3.16;81.69;101294.78;4989432;28;106020;-69
2021/12/13 18:42:06;;;;;;;117.65;41.90;;;;;;;3.16;81.56;101292.13;4987729;28;106163;-68
2021/12/13 18:44:54;;;;;;;102.05;41.50;;;;;;;3.16;81.14;101294.78;4987644;28;106093;-72
2021/12/13 18:47:24;;;;;;;130.43;44.85;;;;;;;3.16;81.23;101298.25;4985009;28;105989;-67
2021/12/13 18:49:52;;;;;;;127.22;43.95;;;;;;;3.14;81.44;101299.28;4971164;28;106082;-65
2021/12/13 18:52:17;;;;;;;143.63;45.15;;;;;;;3.13;80.85;101305.47;4969844;28;106208;-65
2021/12/13 18:54:55;;;;;;;145.82;47.20;;;;;;;3.12;81.10;101301.16;4972417;28;105950;-64
2021/12/13 18:57:29;;;;;;;118.68;43.60;;;;;;;3.13;81.38;101297.56;4988929;28;106444;-66
2021/12/13 19:00:05;;;;;;;131.25;46.63;;;;;;;3.12;81.14;101291.47;5000917;28;106375;-65
2021/12/13 19:02:44;;;;;;;111.07;45.17;;;;;;;3.14;81.55;101296.63;5007949;28;106195;-65
2021/12/13 19:05:30;;;;;;;111.32;45.58;;;;;;;3.14;81.29;101288.75;5008104;28;106106;-71
2021/12/13 19:08:02;;;;;;;136.27;44.88;;;;;;;3.13;81.48;101297.56;5001227;28;106323;-70
2021/12/13 19:10:50;;;;;;;149.98;51.42;;;;;;;3.09;81.76;101291.66;4970164;28;106035;-71
2021/12/13 19:13:18;;;;;;;104.13;40.00;;;;;;;3.09;81.76;101296.94;4969614;28;106237;-69
2021/12/13 19:15:44;;;;;;;115.60;42.20;;;;;;;3.05;81.63;101285.72;4969262;28;106600;-69
2021/12/13 19:18:19;;;;;;;100.95;39.10;;;;;;;3.04;81.62;101291.09;4969329;28;105847;-66
2021/12/13 19:20:57;;;;;;;109.50;41.88;;;;;;;3.03;81.55;101286.78;4968459;28;106239;-67
2021/12/13 19:23:27;;;;;;;94.10;41.78;;;;;;;3.03;81.62;101292.91;4985777;28;105972;-66
2021/12/13 19:25:57;;;;;;;104.67;43.03;;;;;;;3.03;81.67;101292.91;4987605;28;106767;-66
2021/12/13 19:28:26;;;;;;;83.93;42.63;;;;;;;3.01;81.53;101300.03;4988986;28;106629;-65
2021/12/13 19:31:02;;;;;;;111.20;48.30;;;;;;;2.98;81.41;101294.09;4989044;28;106029;-65
2021/12/13 19:33:41;;;;;;;106.95;50.55;;;;;;;2.98;81.95;101294.97;4989135;28;106179;-64
2021/12/13 19:36:12;;;;;;;118.45;48.05;;;;;;;3.02;81.72;101295.59;4988499;28;105784;-65
2021/12/13 19:39:01;;;;;;;105.38;50.33;;;;;;;3.01;81.55;101299.19;4988676;28;106237;-65
2021/12/13 19:41:56;;;;;;;108.30;46.10;;;;;;;3.00;81.49;101292.22;4988171;28;106214;-66
2021/12/13 19:44:25;;;;;;;95.25;42.50;;;;;;;3.01;81.61;101294.75;4988064;28;106303;-68
2021/12/13 19:47:06;;;;;;;92.63;43.22;;;;;;;2.98;81.98;101289.69;4988397;28;105944;-66
2021/12/13 19:49:46;;;;;;;90.10;41.15;;;;;;;3.00;81.89;101287.78;4987065;28;106243;-67
2021/12/13 19:52:21;;;;;;;88.88;41.15;;;;;;;2.99;81.33;101286.13;4989418;28;106315;-69
2021/12/13 19:54:53;;;;;;;83.88;38.25;;;;;;;2.98;81.64;101281.78;4988895;28;106254;-67
2021/12/13 19:57:29;;;;;;;78.97;39.83;;;;;;;2.99;82.08;101283.50;4988845;28;105870;-68
2021/12/13 20:00:20;;;;;;;74.03;37.13;;;;;;;3.00;82.07;101287.78;4988490;28;106321;-66
2021/12/13 20:02:54;;;;;;;76.13;37.67;;;;;;;3.05;82.17;101287.53;4988365;28;107513;-65
2021/12/13 20:05:37;;;;;;;83.53;39.05;;;;;;;3.08;82.31;101292.59;4988929;28;105742;-68
2021/12/13 20:08:20;;;;;;;77.57;39.13;;;;;;;3.12;82.43;101295.91;4988231;28;105976;-67
2021/12/13 20:11:03;;;;;;;76.03;37.00;;;;;;;3.15;81.70;101287.81;4988731;28;106002;-67
2021/12/13 20:13:35;;;;;;;75.78;37.83;;;;;;;3.18;82.08;101285.81;4989177;28;106088;-68
2021/12/13 20:16:09;;;;;;;73.80;35.63;;;;;;;3.22;81.81;101291.75;4988716;28;106237;-67
2021/12/13 20:18:40;;;;;;;83.82;38.72;;;;;;;3.25;81.79;101282.81;4988446;28;105787;-68
2021/12/13 20:21:15;;;;;;;77.93;37.10;;;;;;;3.29;81.78;101287.78;4988210;28;106029;-71
2021/12/13 20:23:53;;;;;;;79.07;36.88;;;;;;;3.34;82.21;101279.59;4989102;28;105969;-68
2021/12/13 20:26:27;;;;;;;69.72;37.03;;;;;;;3.42;82.35;101290.50;4988756;28;105904;-69
2021/12/13 20:28:56;;;;;;;68.65;36.60;;;;;;;3.48;82.13;101284.00;4988101;28;107097;-67
2021/12/13 20:31:33;;;;;;;66.32;36.72;;;;;;;3.50;82.45;101285.59;4987837;28;105775;-67
2021/12/13 20:34:13;;;;;;;80.38;35.97;;;;;;;3.54;82.11;101286.22;4988378;28;105923;-68
2021/12/13 20:36:54;;;;;;;68.15;35.45;;;;;;;3.54;81.81;101283.59;4985707;28;106003;-67
2021/12/13 20:39:50;;;;;;;73.03;34.85;;;;;;;3.59;82.07;101286.78;4982143;28;106441;-66
2021/12/13 20:42:41;;;;;;;67.88;34.08;;;;;;;3.64;81.95;101286.50;4987695;28;106160;-66
2021/12/13 20:45:28;;;;;;;68.85;35.78;;;;;;;3.65;81.61;101278.50;4988310;28;105930;-66
2021/12/13 20:47:58;;;;;;;64.88;34.33;;;;;;;3.66;82.11;101284.59;4988147;28;106175;-66
2021/12/13 20:50:29;;;;;;;59.78;32.42;;;;;;;3.70;82.24;101289.59;4987920;28;105890;-66
2021/12/13 20:52:57;;;;;;;60.22;32.15;;;;;;;3.72;82.19;101282.41;4988231;28;106057;-70
2021/12/13 20:55:36;;;;;;;64.60;33.67;;;;;;;3.74;81.83;101282.31;4988519;28;105878;-70
2021/12/13 20:58:07;;;;;;;56.80;30.80;;;;;;;3.77;82.14;101286.56;4988335;28;106064;-71
2021/12/13 21:00:54;;;;;;;52.80;31.40;;;;;;;3.76;81.97;101275.19;4987081;28;106499;-69
2021/12/13 21:03:28;;;;;;;58.10;31.63;;;;;;;3.76;81.69;101279.59;4986033;28;106158;-68
2021/12/13 21:06:12;;;;;;;64.65;32.50;;;;;;;3.75;81.61;101281.38;4988477;28;106078;-67
2021/12/13 21:08:42;;;;;;;61.75;32.95;;;;;;;3.73;81.46;101286.75;4987183;28;106024;-68
2021/12/13 21:47:43;;;;;;;101.00;46.00;;;;;;;2.67;82.12;101270.50;5024791;28;107478;-68
2021/12/13 21:50:11;;;;;;;116.88;48.63;;;;;;;2.66;82.10;101274.06;5023773;27;105988;-68
2021/12/13 21:52:45;;;;;;;99.53;47.28;;;;;;;2.66;82.21;101279.31;5024993;27;106208;-67
2021/12/13 21:55:28;;;;;;;97.55;46.95;;;;;;;2.67;82.11;101281.00;5024358;28;106847;-75
2021/12/13 21:57:58;;;;;;;107.95;47.08;;;;;;;2.73;82.15;101286.84;5025792;28;105859;-67
2021/12/13 22:00:30;;;;;;;88.78;44.05;;;;;;;2.75;82.04;101282.31;5025419;28;105821;-69
2021/12/13 22:02:59;;;;;;;91.07;42.67;;;;;;;2.82;82.21;101283.69;5024865;27;105848;-66
2021/12/13 22:05:35;;;;;;;86.25;41.33;;;;;;;2.87;82.38;101281.59;5024368;27;106241;-75
2021/12/13 22:08:06;;;;;;;85.88;43.22;;;;;;;2.95;82.42;101295.13;5024681;27;106135;-65
2021/12/13 22:10:38;;;;;;;89.53;43.85;;;;;;;3.03;82.80;101292.91;5025303;27;105960;-72
2021/12/13 22:13:08;;;;;;;86.03;43.17;;;;;;;3.10;82.49;101289.88;5024517;28;106337;-66
2021/12/13 22:15:51;;;;;;;97.78;46.95;;;;;;;3.10;82.18;101287.25;5024131;28;106484;-69
2021/12/13 22:18:22;;;;;;;97.07;44.30;;;;;;;3.10;82.55;101285.44;5024771;27;105738;-72
2021/12/13 22:21:09;;;;;;;87.20;45.20;;;;;;;3.11;82.31;101284.50;5025466;27;105998;-67
2021/12/13 22:23:39;;;;;;;96.80;45.53;;;;;;;3.14;81.75;101288.75;5025102;28;106368;-70
2021/12/13 22:26:07;;;;;;;100.45;45.97;;;;;;;3.13;81.97;101282.63;5024182;27;106021;-67
2021/12/13 22:28:36;;;;;;;93.25;44.13;;;;;;;3.13;82.05;101273.88;5024592;28;105949;-72
2021/12/13 22:31:09;;;;;;;98.60;44.85;;;;;;;3.14;82.09;101273.78;5025084;27;105850;-69
2021/12/13 22:33:36;;;;;;;90.72;44.22;;;;;;;3.14;81.75;101272.94;5024163;28;106118;-71
2021/12/13 22:36:06;;;;;;;98.07;46.42;;;;;;;3.12;82.02;101270.41;5023734;27;106610;-75
2021/12/13 22:38:42;;;;;;;102.28;45.42;;;;;;;3.11;82.10;101266.06;5024374;27;106025;-69
2021/12/13 22:41:35;;;;;;;109.15;46.90;;;;;;;3.10;81.62;101267.00;5023793;28;106348;-72
2021/12/13 22:44:06;;;;;;;92.43;43.90;;;;;;;3.08;81.84;101270.72;5024505;28;106168;-77
2021/12/13 22:46:39;;;;;;;88.72;40.83;;;;;;;3.05;82.07;101262.03;5023295;27;106200;-70
2021/12/13 22:49:12;;;;;;;94.15;42.80;;;;;;;3.01;81.87;101257.91;5023678;27;106568;-69
2021/12/13 22:51:40;;;;;;;84.72;40.72;;;;;;;2.99;82.04;101258.94;5025091;27;106010;-69
2021/12/13 22:54:07;;;;;;;92.53;43.22;;;;;;;2.97;81.70;101259.03;5024190;28;106115;-70
2021/12/13 22:56:36;;;;;;;87.70;42.45;;;;;;;2.98;82.37;101263.38;5023381;27;106038;-66
2021/12/13 22:59:09;;;;;;;96.18;42.83;;;;;;;2.97;82.00;101253.78;5009925;28;105866;-69
2021/12/13 23:01:43;;;;;;;89.28;42.58;;;;;;;2.96;82.04;101259.97;5011416;28;106090;-71
2021/12/13 23:04:16;;;;;;;80.38;42.22;;;;;;;2.97;82.16;101255.56;5011371;28;106016;-71
2021/12/13 23:06:42;;;;;;;87.07;41.05;;;;;;;3.03;82.33;101255.19;5010846;28;106910;-75
2021/12/13 23:09:41;;;;;;;92.65;44.22;;;;;;;3.05;82.02;101259.41;5008286;28;106086;-68
2021/12/13 23:14:58;;;;;;;89.35;41.97;;;;;;;3.07;81.87;101253.22;5010707;28;106036;-67
2021/12/13 23:17:24;;;;;;;85.25;39.92;;;;;;;3.08;81.94;101257.53;5009907;28;106050;-66
2021/12/13 23:19:49;;;;;;;95.53;42.47;;;;;;;3.07;81.67;101256.69;5010120;28;106004;-68
2021/12/13 23:22:19;;;;;;;86.32;41.10;;;;;;;3.05;82.05;101259.41;5010531;28;106067;-67
2021/12/13 23:24:46;;;;;;;101.65;44.25;;;;;;;3.05;81.98;101259.41;5010001;28;105957;-67
2021/12/13 23:27:14;;;;;;;103.13;44.45;;;;;;;3.08;82.23;101260.19;5009031;28;105942;-71
2021/12/13 23:29:55;;;;;;;106.60;43.72;;;;;;;3.10;82.03;101255.66;5010163;28;105940;-65
2021/12/13 23:32:25;;;;;;;100.20;43.17;;;;;;;3.10;82.32;101261.75;5010657;28;105784;-66
2021/12/13 23:34:52;;;;;;;118.05;48.47;;;;;;;3.08;81.77;101257.53;5010542;28;106726;-70
2021/12/13 23:37:18;;;;;;;124.10;48.28;;;;;;;2.99;81.27;101258.94;5010377;28;108008;-65
2021/12/13 23:45:53;;;;;;;116.07;45.55;;;;;;;2.95;82.25;101249.53;5007543;28;105988;-66
2021/12/13 23:48:23;;;;;;;105.18;42.80;;;;;;;2.97;82.61;101237.97;5009674;28;105879;-67
2021/12/13 23:51:05;;;;;;;101.25;44.28;;;;;;;2.98;82.08;101237.03;5009382;28;105969;-68
2021/12/13 23:53:32;;;;;;;102.93;44.90;;;;;;;2.97;82.45;101229.25;5010346;28;105835;-67
2021/12/13 23:56:04;;;;;;;130.25;47.70;;;;;;;2.94;81.93;101235.53;5009780;28;106377;-67
2021/12/13 23:58:46;;;;;;;95.28;42.53;;;;;;;2.93;82.23;101225.94;5009518;28;105775;-70
